sensor_id;sensor_type;location;lat;lon;timestamp;pressure;altitude;pressure_sealevel;temperature;humidity
13456;BME280;6800;50.940;6.940;2023-02-01T00:01:35;101305.53;;;18.14;41.38
13456;BME280;6800;50.940;6.940;2023-02-01T00:05:36;101299.41;;;17.91;41.64
13456;BME280;6800;50.940;6.940;2023-02-01T00:09:37;101298.69;;;17.89;42.00
13456;BME280;6800;50.940;6.940;2023-02-01T00:13:41;101308.25;;;17.68;42.32
13456;BME280;6800;50.940;6.940;2023-02-01T00:17:42;101315.53;;;17.53;42.67
13456;BME280;6800;50.940;6.940;2023-02-01T00:21:44;101317.84;;;17.58;42.80
13456;BME280;6800;50.940;6.940;2023-02-01T00:25:46;101320.97;;;17.39;43.35
13456;BME280;6800;50.940;6.940;2023-02-01T00:29:48;101318.28;;;17.52;42.88
13456;BME280;6800;50.940;6.940;2023-02-01T00:33:49;101303.16;;;17.19;43.32
13456;BME280;6800;50.940;6.940;2023-02-01T00:37:51;101310.41;;;16.81;43.76
13456;BME280;6800;50.940;6.940;2023-02-01T00:41:52;101299.13;;;17.37;42.32
13456;BME280;6800;50.940;6.940;2023-02-01T00:45:53;101300.84;;;17.14;42.48
13456;BME280;6800;50.940;6.940;2023-02-01T00:49:55;101302.50;;;17.39;41.66
13456;BME280;6800;50.940;6.940;2023-02-01T00:53:57;101299.47;;;16.98;41.92
13456;BME280;6800;50.940;6.940;2023-02-01T00:57:58;101306.34;;;17.11;41.33
13456;BME280;6800;50.940;6.940;2023-02-01T01:01:59;101292.31;;;17.46;40.85
13456;BME280;6800;50.940;6.940;2023-02-01T01:06:07;101278.16;;;17.47;40.21
13456;BME280;6800;50.940;6.940;2023-02-01T01:10:09;101269.13;;;17.27;40.03
13456;BME280;6800;50.940;6.940;2023-02-01T01:14:11;101255.06;;;17.61;39.24
13456;BME280;6800;50.940;6.940;2023-02-01T01:18:12;101263.56;;;17.54;39.05
13456;BME280;6800;50.940;6.940;2023-02-01T01:22:13;101281.47;;;17.61;38.72
13456;BME280;6800;50.940;6.940;2023-02-01T01:26:17;101282.91;;;17.20;39.26
13456;BME280;6800;50.940;6.940;2023-02-01T01:30:19;101289.28;;;17.28;38.77
13456;BME280;6800;50.940;6.940;2023-02-01T01:34:21;101300.13;;;17.12;38.24
13456;BME280;6800;50.940;6.940;2023-02-01T01:38:22;101299.00;;;17.04;38.44
13456;BME280;6800;50.940;6.940;2023-02-01T01:42:24;101307.25;;;17.23;38.46
13456;BME280;6800;50.940;6.940;2023-02-01T01:46:31;101309.72;;;16.90;38.28
13456;BME280;6800;50.940;6.940;2023-02-01T01:50:40;101296.47;;;17.26;38.21
13456;BME280;6800;50.940;6.940;2023-02-01T01:54:47;101294.63;;;17.15;38.45
13456;BME280;6800;50.940;6.940;2023-02-01T01:58:50;101279.47;;;17.06;38.49
13456;BME280;6800;50.940;6.940;2023-02-01T02:03:00;101282.97;;;17.18;38.25
13456;BME280;6800;50.940;6.940;2023-02-01T02:07:09;101282.09;;;17.30;37.83
13456;BME280;6800;50.940;6.940;2023-02-01T02:11:14;101273.44;;;17.28;38.14
13456;BME280;6800;50.940;6.940;2023-02-01T02:15:17;101273.47;;;17.04;38.73
13456;BME280;6800;50.940;6.940;2023-02-01T02:41:26;101253.88;;;17.20;38.41
13456;BME280;6800;50.940;6.940;2023-02-01T02:45:54;101249.09;;;17.36;38.66
13456;BME280;6800;50.940;6.940;2023-02-01T02:50:51;101261.22;;;17.03;39.17
13456;BME280;6800;50.940;6.940;2023-02-01T02:55:16;101252.94;;;17.32;38.59
13456;BME280;6800;50.940;6.940;2023-02-01T02:59:20;101234.03;;;17.49;38.35
13456;BME280;6800;50.940;6.940;2023-02-01T03:03:42;101226.94;;;17.38;38.78
13456;BME280;6800;50.940;6.940;2023-02-01T03:08:15;101230.25;;;17.29;38.67
13456;BME280;6800;50.940;6.940;2023-02-01T03:12:17;101227.16;;;17.35;38.69
13456;BME280;6800;50.940;6.940;2023-02-01T03:16:47;101229.75;;;17.24;38.36
13456;BME280;6800;50.940;6.940;2023-02-01T03:20:53;101226.28;;;17.24;39.21
13456;BME280;6800;50.940;6.940;2023-02-01T03:25:03;101227.09;;;17.13;39.46
13456;BME280;6800;50.940;6.940;2023-02-01T03:29:11;101218.56;;;17.09;39.74
13456;BME280;6800;50.940;6.940;2023-02-01T03:33:17;101234.38;;;16.75;40.13
13456;BME280;6800;50.940;6.940;2023-02-01T03:37:26;101227.41;;;16.50;40.61
13456;BME280;6800;50.940;6.940;2023-02-01T03:41:39;101232.22;;;17.03;39.78
13456;BME280;6800;50.940;6.940;2023-02-01T03:45:44;101231.44;;;17.25;39.34
13456;BME280;6800;50.940;6.940;2023-02-01T03:49:50;101221.28;;;16.73;40.40
13456;BME280;6800;50.940;6.940;2023-02-01T03:53:56;101205.25;;;16.53;40.57
13456;BME280;6800;50.940;6.940;2023-02-01T03:58:09;101212.88;;;16.92;39.61
13456;BME280;6800;50.940;6.940;2023-02-01T04:02:12;101208.69;;;16.29;40.57
13456;BME280;6800;50.940;6.940;2023-02-01T04:06:13;101201.13;;;16.49;40.22
13456;BME280;6800;50.940;6.940;2023-02-01T04:10:15;101206.97;;;16.88;39.33
13456;BME280;6800;50.940;6.940;2023-02-01T04:14:19;101221.34;;;16.84;39.48
13456;BME280;6800;50.940;6.940;2023-02-01T04:18:21;101221.31;;;16.50;39.71
13456;BME280;6800;50.940;6.940;2023-02-01T04:22:22;101221.41;;;16.95;39.26
13456;BME280;6800;50.940;6.940;2023-02-01T04:26:24;101211.78;;;16.94;39.18
13456;BME280;6800;50.940;6.940;2023-02-01T04:30:25;101206.44;;;16.72;39.14
13456;BME280;6800;50.940;6.940;2023-02-01T04:34:27;101196.44;;;16.88;39.20
13456;BME280;6800;50.940;6.940;2023-02-01T04:38:28;101200.44;;;16.70;39.58
13456;BME280;6800;50.940;6.940;2023-02-01T04:42:30;101201.50;;;16.68;39.44
13456;BME280;6800;50.940;6.940;2023-02-01T04:46:31;101205.38;;;16.75;39.56
13456;BME280;6800;50.940;6.940;2023-02-01T04:50:33;101194.50;;;16.56;39.16
13456;BME280;6800;50.940;6.940;2023-02-01T04:54:34;101171.84;;;16.17;40.25
13456;BME280;6800;50.940;6.940;2023-02-01T04:58:36;101169.88;;;16.08;40.41
13456;BME280;6800;50.940;6.940;2023-02-01T05:02:37;101165.16;;;16.36;39.49
13456;BME280;6800;50.940;6.940;2023-02-01T05:06:39;101167.50;;;16.28;39.72
13456;BME280;6800;50.940;6.940;2023-02-01T05:10:40;101178.94;;;16.04;40.11
13456;BME280;6800;50.940;6.940;2023-02-01T05:14:41;101184.75;;;16.09;39.88
13456;BME280;6800;50.940;6.940;2023-02-01T05:18:43;101181.44;;;15.82;40.68
13456;BME280;6800;50.940;6.940;2023-02-01T05:22:44;101205.16;;;15.56;40.91
13456;BME280;6800;50.940;6.940;2023-02-01T05:26:47;101207.16;;;16.14;39.67
13456;BME280;6800;50.940;6.940;2023-02-01T05:30:49;101193.19;;;15.89;39.94
13456;BME280;6800;50.940;6.940;2023-02-01T05:34:50;101188.63;;;15.67;40.44
13456;BME280;6800;50.940;6.940;2023-02-01T05:38:52;101193.53;;;15.84;40.07
13456;BME280;6800;50.940;6.940;2023-02-01T05:42:53;101198.25;;;15.92;39.87
13456;BME280;6800;50.940;6.940;2023-02-01T05:46:54;101206.09;;;16.17;38.85
13456;BME280;6800;50.940;6.940;2023-02-01T05:50:56;101199.69;;;16.08;39.55
13456;BME280;6800;50.940;6.940;2023-02-01T05:54:57;101182.59;;;16.14;38.94
13456;BME280;6800;50.940;6.940;2023-02-01T05:58:59;101192.06;;;15.80;39.85
13456;BME280;6800;50.940;6.940;2023-02-01T06:03:00;101198.94;;;15.57;39.95
13456;BME280;6800;50.940;6.940;2023-02-01T06:07:02;101202.88;;;16.01;39.22
13456;BME280;6800;50.940;6.940;2023-02-01T06:11:04;101203.97;;;15.86;39.36
13456;BME280;6800;50.940;6.940;2023-02-01T06:15:06;101190.59;;;15.63;39.95
13456;BME280;6800;50.940;6.940;2023-02-01T06:19:08;101200.69;;;15.82;39.58
13456;BME280;6800;50.940;6.940;2023-02-01T06:23:09;101197.69;;;16.12;40.99
13456;BME280;6800;50.940;6.940;2023-02-01T06:27:11;101211.16;;;16.20;40.44
13456;BME280;6800;50.940;6.940;2023-02-01T06:31:12;101220.72;;;15.72;40.45
13456;BME280;6800;50.940;6.940;2023-02-01T06:35:14;101223.22;;;15.99;39.59
13456;BME280;6800;50.940;6.940;2023-02-01T06:39:17;101225.19;;;16.08;39.23
13456;BME280;6800;50.940;6.940;2023-02-01T06:43:19;101227.75;;;15.72;40.09
13456;BME280;6800;50.940;6.940;2023-02-01T06:47:20;101229.56;;;15.58;40.67
13456;BME280;6800;50.940;6.940;2023-02-01T06:51:24;101232.19;;;15.84;39.46
13456;BME280;6800;50.940;6.940;2023-02-01T06:55:26;101229.97;;;16.39;39.04
13456;BME280;6800;50.940;6.940;2023-02-01T06:59:27;101237.44;;;15.96;40.29
13456;BME280;6800;50.940;6.940;2023-02-01T07:03:28;101234.06;;;16.43;39.14
13456;BME280;6800;50.940;6.940;2023-02-01T07:07:30;101233.09;;;16.44;38.82
13456;BME280;6800;50.940;6.940;2023-02-01T07:11:31;101235.25;;;16.39;39.05
13456;BME280;6800;50.940;6.940;2023-02-01T07:15:33;101244.50;;;15.71;40.13
13456;BME280;6800;50.940;6.940;2023-02-01T07:19:34;101258.88;;;16.28;39.44
13456;BME280;6800;50.940;6.940;2023-02-01T07:23:35;101251.47;;;16.33;39.51
13456;BME280;6800;50.940;6.940;2023-02-01T07:27:37;101257.38;;;16.36;39.49
13456;BME280;6800;50.940;6.940;2023-02-01T07:31:39;101265.56;;;16.45;39.25
13456;BME280;6800;50.940;6.940;2023-02-01T07:35:40;101259.84;;;16.02;40.14
13456;BME280;6800;50.940;6.940;2023-02-01T07:39:42;101266.50;;;16.07;39.82
13456;BME280;6800;50.940;6.940;2023-02-01T07:43:43;101274.19;;;16.59;39.06
13456;BME280;6800;50.940;6.940;2023-02-01T07:47:45;101262.09;;;15.83;40.12
13456;BME280;6800;50.940;6.940;2023-02-01T07:51:46;101257.00;;;16.66;38.99
13456;BME280;6800;50.940;6.940;2023-02-01T07:55:47;101263.84;;;16.20;38.87
13456;BME280;6800;50.940;6.940;2023-02-01T07:59:49;101265.56;;;16.57;38.80
13456;BME280;6800;50.940;6.940;2023-02-01T08:04:12;101272.84;;;15.67;40.32
13456;BME280;6800;50.940;6.940;2023-02-01T08:08:13;101279.25;;;15.88;40.05
13456;BME280;6800;50.940;6.940;2023-02-01T08:12:15;101274.72;;;16.64;38.36
13456;BME280;6800;50.940;6.940;2023-02-01T08:16:17;101281.78;;;16.02;39.68
13456;BME280;6800;50.940;6.940;2023-02-01T08:20:19;101279.44;;;15.98;39.76
13456;BME280;6800;50.940;6.940;2023-02-01T08:24:23;101262.94;;;15.83;39.88
13456;BME280;6800;50.940;6.940;2023-02-01T08:28:24;101275.69;;;16.38;39.19
13456;BME280;6800;50.940;6.940;2023-02-01T08:32:26;101273.94;;;16.26;39.43
13456;BME280;6800;50.940;6.940;2023-02-01T08:36:30;101273.59;;;16.56;38.71
13456;BME280;6800;50.940;6.940;2023-02-01T08:40:32;101286.09;;;16.88;38.72
13456;BME280;6800;50.940;6.940;2023-02-01T08:44:34;101284.00;;;16.57;38.69
13456;BME280;6800;50.940;6.940;2023-02-01T08:48:36;101304.66;;;16.63;38.46
13456;BME280;6800;50.940;6.940;2023-02-01T08:52:37;101304.38;;;16.55;38.34
13456;BME280;6800;50.940;6.940;2023-02-01T08:56:39;101302.81;;;16.76;38.14
13456;BME280;6800;50.940;6.940;2023-02-01T09:00:40;101303.56;;;17.02;37.67
13456;BME280;6800;50.940;6.940;2023-02-01T09:04:42;101307.69;;;17.17;37.57
13456;BME280;6800;50.940;6.940;2023-02-01T09:08:43;101299.66;;;17.18;37.35
13456;BME280;6800;50.940;6.940;2023-02-01T09:12:45;101299.72;;;17.30;37.13
13456;BME280;6800;50.940;6.940;2023-02-01T09:16:46;101285.88;;;17.50;36.74
13456;BME280;6800;50.940;6.940;2023-02-01T09:20:48;101293.88;;;18.05;36.34
13456;BME280;6800;50.940;6.940;2023-02-01T09:24:49;101292.94;;;18.06;35.95
13456;BME280;6800;50.940;6.940;2023-02-01T09:28:51;101277.16;;;17.26;37.40
13456;BME280;6800;50.940;6.940;2023-02-01T09:32:52;101282.81;;;18.22;35.36
13456;BME280;6800;50.940;6.940;2023-02-01T09:36:53;101275.75;;;17.78;35.83
13456;BME280;6800;50.940;6.940;2023-02-01T09:40:55;101282.09;;;17.41;36.95
13456;BME280;6800;50.940;6.940;2023-02-01T09:45:20;101290.25;;;17.73;36.46
13456;BME280;6800;50.940;6.940;2023-02-01T09:49:30;101280.53;;;17.73;36.07
13456;BME280;6800;50.940;6.940;2023-02-01T09:53:36;101270.53;;;18.77;34.63
13456;BME280;6800;50.940;6.940;2023-02-01T09:57:55;101283.06;;;18.41;35.27
13456;BME280;6800;50.940;6.940;2023-02-01T10:01:58;101286.19;;;18.13;35.17
13456;BME280;6800;50.940;6.940;2023-02-01T10:10:39;101282.50;;;18.05;35.65
13456;BME280;6800;50.940;6.940;2023-02-01T10:19:02;101262.25;;;19.54;33.15
13456;BME280;6800;50.940;6.940;2023-02-01T10:27:42;101254.88;;;19.78;32.88
13456;BME280;6800;50.940;6.940;2023-02-01T10:31:43;101263.22;;;20.44;31.75
13456;BME280;6800;50.940;6.940;2023-02-01T10:35:46;101252.31;;;20.07;31.84
13456;BME280;6800;50.940;6.940;2023-02-01T10:39:54;101247.25;;;21.03;31.00
13456;BME280;6800;50.940;6.940;2023-02-01T10:43:57;101252.47;;;22.43;28.78
13456;BME280;6800;50.940;6.940;2023-02-01T10:48:00;101248.56;;;22.82;27.50
13456;BME280;6800;50.940;6.940;2023-02-01T10:52:18;101237.47;;;22.42;27.92
13456;BME280;6800;50.940;6.940;2023-02-01T10:56:23;101237.47;;;23.04;27.42
13456;BME280;6800;50.940;6.940;2023-02-01T11:00:25;101240.50;;;20.89;30.17
13456;BME280;6800;50.940;6.940;2023-02-01T11:04:32;101239.66;;;19.80;31.40
13456;BME280;6800;50.940;6.940;2023-02-01T11:08:42;101237.19;;;22.18;28.45
13456;BME280;6800;50.940;6.940;2023-02-01T11:12:53;101226.53;;;20.58;30.66
13456;BME280;6800;50.940;6.940;2023-02-01T11:16:59;101236.19;;;19.89;32.19
13456;BME280;6800;50.940;6.940;2023-02-01T11:21:01;101231.13;;;20.56;31.02
13456;BME280;6800;50.940;6.940;2023-02-01T11:25:10;101224.47;;;19.52;32.59
13456;BME280;6800;50.940;6.940;2023-02-01T11:29:17;101228.72;;;19.23;33.27
13456;BME280;6800;50.940;6.940;2023-02-01T11:33:31;101211.47;;;20.09;31.44
13456;BME280;6800;50.940;6.940;2023-02-01T11:37:38;101226.69;;;20.17;31.72
13456;BME280;6800;50.940;6.940;2023-02-01T11:41:43;101234.03;;;18.91;33.58
13456;BME280;6800;50.940;6.940;2023-02-01T11:45:57;101220.47;;;19.37;33.52
13456;BME280;6800;50.940;6.940;2023-02-01T11:50:03;101216.00;;;19.98;31.75
13456;BME280;6800;50.940;6.940;2023-02-01T12:16:13;101176.06;;;18.88;33.58
13456;BME280;6800;50.940;6.940;2023-02-01T12:24:52;101176.75;;;18.69;33.97
13456;BME280;6800;50.940;6.940;2023-02-01T12:29:02;101184.00;;;18.67;34.16
13456;BME280;6800;50.940;6.940;2023-02-01T12:37:58;101184.56;;;18.92;33.80
13456;BME280;6800;50.940;6.940;2023-02-01T12:42:14;101172.94;;;19.15;33.35
13456;BME280;6800;50.940;6.940;2023-02-01T12:46:52;101171.19;;;19.25;33.11
13456;BME280;6800;50.940;6.940;2023-02-01T12:51:02;101170.19;;;19.26;33.25
13456;BME280;6800;50.940;6.940;2023-02-01T12:59:26;101146.22;;;18.77;34.23
13456;BME280;6800;50.940;6.940;2023-02-01T13:07:57;101139.75;;;18.69;34.08
13456;BME280;6800;50.940;6.940;2023-02-01T13:12:06;101129.44;;;18.24;34.74
13456;BME280;6800;50.940;6.940;2023-02-01T13:16:26;101132.41;;;18.30;35.00
13456;BME280;6800;50.940;6.940;2023-02-01T13:20:45;101128.63;;;18.55;34.66
13456;BME280;6800;50.940;6.940;2023-02-01T13:24:53;101115.59;;;18.84;34.20
13456;BME280;6800;50.940;6.940;2023-02-01T13:29:05;101110.19;;;18.64;34.72
13456;BME280;6800;50.940;6.940;2023-02-01T13:42:22;101092.66;;;18.32;35.87
13456;BME280;6800;50.940;6.940;2023-02-01T13:46:25;101109.28;;;18.54;35.71
13456;BME280;6800;50.940;6.940;2023-02-01T13:50:30;101122.28;;;18.04;36.88
13456;BME280;6800;50.940;6.940;2023-02-01T13:54:39;101096.72;;;18.36;36.50
13456;BME280;6800;50.940;6.940;2023-02-01T13:58:43;101102.53;;;18.19;36.13
13456;BME280;6800;50.940;6.940;2023-02-01T14:07:02;101105.34;;;18.06;36.21
13456;BME280;6800;50.940;6.940;2023-02-01T14:11:03;101116.56;;;17.87;36.23
13456;BME280;6800;50.940;6.940;2023-02-01T14:15:26;101090.72;;;18.34;35.54
13456;BME280;6800;50.940;6.940;2023-02-01T14:19:31;101096.19;;;18.74;34.76
13456;BME280;6800;50.940;6.940;2023-02-01T14:23:38;101106.47;;;18.24;35.62
13456;BME280;6800;50.940;6.940;2023-02-01T14:27:41;101114.03;;;18.60;34.75
13456;BME280;6800;50.940;6.940;2023-02-01T14:31:52;101107.16;;;18.37;34.96
13456;BME280;6800;50.940;6.940;2023-02-01T14:36:05;101112.19;;;18.72;34.38
13456;BME280;6800;50.940;6.940;2023-02-01T14:44:24;101117.53;;;18.29;35.12
13456;BME280;6800;50.940;6.940;2023-02-01T14:48:42;101128.13;;;18.18;34.71
13456;BME280;6800;50.940;6.940;2023-02-01T14:53:13;101132.47;;;18.83;34.20
13456;BME280;6800;50.940;6.940;2023-02-01T14:57:19;101128.44;;;18.88;34.09
13456;BME280;6800;50.940;6.940;2023-02-01T15:01:28;101119.78;;;18.34;34.77
13456;BME280;6800;50.940;6.940;2023-02-01T15:05:32;101122.50;;;18.54;34.31
13456;BME280;6800;50.940;6.940;2023-02-01T15:09:38;101132.28;;;18.75;33.94
13456;BME280;6800;50.940;6.940;2023-02-01T15:14:01;101121.25;;;18.27;34.54
13456;BME280;6800;50.940;6.940;2023-02-01T15:18:03;101142.53;;;18.25;35.17
13456;BME280;6800;50.940;6.940;2023-02-01T15:22:04;101134.13;;;18.63;34.20
13456;BME280;6800;50.940;6.940;2023-02-01T15:26:06;101138.66;;;18.72;34.03
13456;BME280;6800;50.940;6.940;2023-02-01T15:30:16;101145.50;;;18.75;34.04
13456;BME280;6800;50.940;6.940;2023-02-01T15:34:19;101151.69;;;18.64;34.09
13456;BME280;6800;50.940;6.940;2023-02-01T15:42:25;101154.84;;;18.79;33.99
13456;BME280;6800;50.940;6.940;2023-02-01T15:46:39;101160.19;;;18.88;33.87
13456;BME280;6800;50.940;6.940;2023-02-01T15:50:41;101155.47;;;18.92;34.19
13456;BME280;6800;50.940;6.940;2023-02-01T15:54:48;101158.53;;;18.87;34.04
13456;BME280;6800;50.940;6.940;2023-02-01T15:58:54;101155.41;;;18.82;35.17
13456;BME280;6800;50.940;6.940;2023-02-01T16:03:00;101139.25;;;18.44;35.06
13456;BME280;6800;50.940;6.940;2023-02-01T16:07:03;101155.41;;;19.03;33.98
13456;BME280;6800;50.940;6.940;2023-02-01T16:15:10;101166.69;;;18.63;34.94
13456;BME280;6800;50.940;6.940;2023-02-01T16:19:14;101180.47;;;18.24;37.65
13456;BME280;6800;50.940;6.940;2023-02-01T16:23:16;101182.06;;;18.16;38.28
13456;BME280;6800;50.940;6.940;2023-02-01T16:27:17;101189.66;;;17.65;39.69
13456;BME280;6800;50.940;6.940;2023-02-01T16:31:21;101201.06;;;17.99;40.31
13456;BME280;6800;50.940;6.940;2023-02-01T16:35:34;101190.22;;;18.24;39.45
13456;BME280;6800;50.940;6.940;2023-02-01T16:39:37;101195.53;;;18.02;40.06
13456;BME280;6800;50.940;6.940;2023-02-01T16:43:38;101193.25;;;17.53;41.53
13456;BME280;6800;50.940;6.940;2023-02-01T16:47:47;101196.38;;;17.80;40.98
13456;BME280;6800;50.940;6.940;2023-02-01T16:51:56;101193.97;;;17.99;40.91
13456;BME280;6800;50.940;6.940;2023-02-01T16:55:58;101194.81;;;17.55;41.07
13456;BME280;6800;50.940;6.940;2023-02-01T17:00:00;101204.16;;;18.15;40.23
13456;BME280;6800;50.940;6.940;2023-02-01T17:04:23;101207.91;;;17.68;41.22
13456;BME280;6800;50.940;6.940;2023-02-01T17:08:29;101215.94;;;17.88;41.14
13456;BME280;6800;50.940;6.940;2023-02-01T17:12:35;101225.19;;;17.61;41.54
13456;BME280;6800;50.940;6.940;2023-02-01T17:16:37;101223.28;;;17.74;42.01
13456;BME280;6800;50.940;6.940;2023-02-01T17:20:38;101221.81;;;17.92;41.70
13456;BME280;6800;50.940;6.940;2023-02-01T17:24:40;101223.47;;;17.49;41.92
13456;BME280;6800;50.940;6.940;2023-02-01T17:28:49;101223.06;;;17.77;41.77
13456;BME280;6800;50.940;6.940;2023-02-01T17:32:50;101233.88;;;17.39;43.27
13456;BME280;6800;50.940;6.940;2023-02-01T17:36:52;101240.81;;;18.08;41.84
13456;BME280;6800;50.940;6.940;2023-02-01T17:40:53;101245.44;;;17.49;43.03
13456;BME280;6800;50.940;6.940;2023-02-01T17:44:57;101240.84;;;17.40;43.16
13456;BME280;6800;50.940;6.940;2023-02-01T17:49:00;101241.00;;;17.50;43.00
13456;BME280;6800;50.940;6.940;2023-02-01T17:53:04;101251.31;;;17.07;44.15
13456;BME280;6800;50.940;6.940;2023-02-01T17:57:12;101244.81;;;17.46;43.29
13456;BME280;6800;50.940;6.940;2023-02-01T18:01:17;101241.16;;;17.25;43.49
13456;BME280;6800;50.940;6.940;2023-02-01T18:05:23;101244.94;;;17.09;43.40
13456;BME280;6800;50.940;6.940;2023-02-01T18:09:26;101248.97;;;17.72;42.77
13456;BME280;6800;50.940;6.940;2023-02-01T18:13:29;101258.56;;;17.84;41.96
13456;BME280;6800;50.940;6.940;2023-02-01T18:17:31;101260.34;;;17.61;42.29
13456;BME280;6800;50.940;6.940;2023-02-01T18:21:36;101252.13;;;17.42;42.51
13456;BME280;6800;50.940;6.940;2023-02-01T18:25:37;101247.03;;;17.74;41.60
13456;BME280;6800;50.940;6.940;2023-02-01T18:29:39;101250.00;;;17.58;42.13
13456;BME280;6800;50.940;6.940;2023-02-01T18:33:40;101242.97;;;17.92;41.12
13456;BME280;6800;50.940;6.940;2023-02-01T18:37:42;101239.69;;;17.21;41.92
13456;BME280;6800;50.940;6.940;2023-02-01T18:41:45;101244.75;;;17.69;41.31
13456;BME280;6800;50.940;6.940;2023-02-01T18:45:48;101233.72;;;17.64;41.62
13456;BME280;6800;50.940;6.940;2023-02-01T18:49:49;101241.22;;;17.47;41.42
13456;BME280;6800;50.940;6.940;2023-02-01T18:53:51;101233.16;;;17.26;41.41
13456;BME280;6800;50.940;6.940;2023-02-01T18:57:52;101227.81;;;17.61;40.90
13456;BME280;6800;50.940;6.940;2023-02-01T19:01:54;101229.50;;;17.84;40.81
13456;BME280;6800;50.940;6.940;2023-02-01T19:05:56;101237.22;;;17.87;40.21
13456;BME280;6800;50.940;6.940;2023-02-01T19:09:58;101248.41;;;17.45;41.23
13456;BME280;6800;50.940;6.940;2023-02-01T19:14:00;101237.94;;;17.32;41.26
13456;BME280;6800;50.940;6.940;2023-02-01T19:18:01;101234.88;;;17.49;40.93
13456;BME280;6800;50.940;6.940;2023-02-01T19:22:03;101238.28;;;17.96;40.03
13456;BME280;6800;50.940;6.940;2023-02-01T19:26:09;101230.47;;;17.72;40.45
13456;BME280;6800;50.940;6.940;2023-02-01T19:30:11;101234.31;;;18.23;39.50
13456;BME280;6800;50.940;6.940;2023-02-01T19:34:14;101233.25;;;18.04;39.71
13456;BME280;6800;50.940;6.940;2023-02-01T19:38:16;101236.97;;;17.33;41.42
13456;BME280;6800;50.940;6.940;2023-02-01T19:42:17;101230.97;;;17.66;40.10
13456;BME280;6800;50.940;6.940;2023-02-01T19:46:19;101227.94;;;17.81;39.93
13456;BME280;6800;50.940;6.940;2023-02-01T19:50:20;101225.81;;;17.86;39.78
13456;BME280;6800;50.940;6.940;2023-02-01T19:54:22;101239.84;;;17.87;40.05
13456;BME280;6800;50.940;6.940;2023-02-01T19:58:24;101234.06;;;17.82;40.10
13456;BME280;6800;50.940;6.940;2023-02-01T20:02:25;101238.53;;;17.92;39.91
13456;BME280;6800;50.940;6.940;2023-02-01T20:06:30;101225.69;;;17.77;40.36
13456;BME280;6800;50.940;6.940;2023-02-01T20:10:32;101241.75;;;17.63;40.27
13456;BME280;6800;50.940;6.940;2023-02-01T20:14:33;101216.88;;;18.21;39.38
13456;BME280;6800;50.940;6.940;2023-02-01T20:18:35;101234.97;;;17.48;40.75
13456;BME280;6800;50.940;6.940;2023-02-01T20:22:37;101232.16;;;17.73;40.47
13456;BME280;6800;50.940;6.940;2023-02-01T20:26:38;101224.47;;;17.59;40.40
13456;BME280;6800;50.940;6.940;2023-02-01T20:30:43;101229.75;;;17.59;40.80
13456;BME280;6800;50.940;6.940;2023-02-01T20:34:44;101217.41;;;17.70;40.50
13456;BME280;6800;50.940;6.940;2023-02-01T20:38:46;101220.63;;;18.07;41.25
13456;BME280;6800;50.940;6.940;2023-02-01T20:42:47;101216.75;;;18.44;40.79
13456;BME280;6800;50.940;6.940;2023-02-01T20:46:49;101221.59;;;18.17;39.45
13456;BME280;6800;50.940;6.940;2023-02-01T20:50:54;101222.31;;;18.19;39.64
13456;BME280;6800;50.940;6.940;2023-02-01T20:54:56;101221.72;;;17.93;40.42
13456;BME280;6800;50.940;6.940;2023-02-01T20:58:57;101229.63;;;17.71;40.58
13456;BME280;6800;50.940;6.940;2023-02-01T21:03:03;101231.69;;;18.01;40.29
13456;BME280;6800;50.940;6.940;2023-02-01T21:07:04;101236.00;;;18.02;39.99
13456;BME280;6800;50.940;6.940;2023-02-01T21:11:08;101238.53;;;18.04;40.12
13456;BME280;6800;50.940;6.940;2023-02-01T21:15:10;101241.75;;;18.07;40.32
13456;BME280;6800;50.940;6.940;2023-02-01T21:19:11;101243.22;;;18.00;40.37
13456;BME280;6800;50.940;6.940;2023-02-01T21:23:14;101244.41;;;17.74;41.16
13456;BME280;6800;50.940;6.940;2023-02-01T21:27:15;101246.09;;;17.86;40.73
13456;BME280;6800;50.940;6.940;2023-02-01T21:31:18;101246.09;;;18.19;39.92
13456;BME280;6800;50.940;6.940;2023-02-01T21:35:21;101252.00;;;17.44;41.89
13456;BME280;6800;50.940;6.940;2023-02-01T21:39:24;101265.28;;;18.32;39.61
13456;BME280;6800;50.940;6.940;2023-02-01T21:43:27;101258.81;;;18.14;40.08
13456;BME280;6800;50.940;6.940;2023-02-01T21:47:28;101263.84;;;18.28;39.94
13456;BME280;6800;50.940;6.940;2023-02-01T21:51:30;101271.13;;;17.58;41.20
13456;BME280;6800;50.940;6.940;2023-02-01T21:55:32;101260.28;;;17.96;40.64
13456;BME280;6800;50.940;6.940;2023-02-01T21:59:33;101272.22;;;17.56;41.10
13456;BME280;6800;50.940;6.940;2023-02-01T22:03:36;101276.75;;;17.54;41.68
13456;BME280;6800;50.940;6.940;2023-02-01T22:07:37;101274.81;;;18.24;40.41
13456;BME280;6800;50.940;6.940;2023-02-01T22:11:38;101273.97;;;18.23;40.22
13456;BME280;6800;50.940;6.940;2023-02-01T22:15:40;101277.94;;;18.07;40.70
13456;BME280;6800;50.940;6.940;2023-02-01T22:19:41;101282.19;;;18.41;40.06
13456;BME280;6800;50.940;6.940;2023-02-01T22:23:43;101282.47;;;18.16;40.42
13456;BME280;6800;50.940;6.940;2023-02-01T22:27:47;101284.41;;;18.14;40.78
13456;BME280;6800;50.940;6.940;2023-02-01T22:32:09;101290.38;;;17.82;41.36
13456;BME280;6800;50.940;6.940;2023-02-01T22:36:13;101290.88;;;18.32;40.19
13456;BME280;6800;50.940;6.940;2023-02-01T22:40:18;101291.72;;;18.32;40.34
13456;BME280;6800;50.940;6.940;2023-02-01T22:44:19;101300.47;;;17.66;41.40
13456;BME280;6800;50.940;6.940;2023-02-01T22:48:20;101311.19;;;17.98;40.88
13456;BME280;6800;50.940;6.940;2023-02-01T22:52:22;101291.84;;;17.86;41.37
13456;BME280;6800;50.940;6.940;2023-02-01T22:56:25;101304.69;;;18.13;40.78
13456;BME280;6800;50.940;6.940;2023-02-01T23:00:27;101298.59;;;18.13;40.68
13456;BME280;6800;50.940;6.940;2023-02-01T23:04:29;101320.66;;;18.12;40.77
13456;BME280;6800;50.940;6.940;2023-02-01T23:08:32;101317.81;;;18.15;40.68
13456;BME280;6800;50.940;6.940;2023-02-01T23:12:35;101302.22;;;17.55;41.88
13456;BME280;6800;50.940;6.940;2023-02-01T23:16:52;101316.72;;;18.06;40.89